Time;durP1;ratioP1;P1;durP2;ratioP2;P2;SDS_P1;SDS_P2;PMS_P1;PMS_P2;Temp;Humidity;BMP_temperature;BMP_pressure;BME280_temperature;BME280_humidity;BME280_pressure;Samples;Min_cycle;Max_cycle;Signal;HPM_P1;HPM_P2
2022/01/06 00:01:46;;;;;;;732.20;662.57;;;3.70;99.90;;;;;;5102975;28;20447;-84
2022/01/06 00:04:13;;;;;;;730.37;661.67;;;3.70;99.90;;;;;;5079296;28;20481;-84
2022/01/06 00:06:42;;;;;;;733.07;665.60;;;3.70;99.90;;;;;;5081413;28;20461;-84
2022/01/06 00:09:11;;;;;;;739.57;670.30;;;3.60;99.90;;;;;;5100128;28;20453;-84
2022/01/06 00:11:37;;;;;;;739.67;670.70;;;3.60;99.90;;;;;;5102475;28;20831;-84
2022/01/06 00:14:10;;;;;;;746.93;677.50;;;3.50;99.90;;;;;;5081956;28;20449;-83
2022/01/06 00:16:44;;;;;;;726.93;657.63;;;3.60;99.90;;;;;;5082281;28;20478;-83
2022/01/06 00:24:39;;;;;;;719.93;653.27;;;3.70;99.90;;;;;;5061523;28;20889;-83
2022/01/06 00:27:06;;;;;;;706.67;640.67;;;3.70;99.90;;;;;;5064835;28;21115;-84
2022/01/06 00:29:33;;;;;;;718.43;652.63;;;3.70;99.90;;;;;;5081245;28;20461;-83
2022/01/06 00:32:01;;;;;;;715.17;649.10;;;3.70;99.90;;;;;;5081802;28;20454;-84
2022/01/06 00:34:28;;;;;;;721.67;658.87;;;3.70;99.90;;;;;;5100609;28;20469;-84
2022/01/06 00:36:55;;;;;;;719.43;655.63;;;3.60;99.90;;;;;;5099875;28;20458;-84
2022/01/06 00:39:26;;;;;;;725.60;663.00;;;3.70;99.90;;;;;;5060012;28;20455;-84
2022/01/06 00:41:55;;;;;;;707.97;644.23;;;3.60;99.90;;;;;;5060818;28;20974;-84
2022/01/06 00:44:23;;;;;;;710.73;647.07;;;3.50;99.90;;;;;;5099944;28;20960;-83
2022/01/06 00:46:50;;;;;;;729.27;664.77;;;3.40;99.90;;;;;;5101289;28;20453;-83
2022/01/06 00:49:18;;;;;;;710.80;644.83;;;3.40;99.90;;;;;;5081433;28;20455;-83
2022/01/06 00:51:44;;;;;;;700.57;638.20;;;3.40;99.90;;;;;;5081348;28;20507;-83
2022/01/06 00:54:11;;;;;;;726.20;662.03;;;3.50;99.90;;;;;;5099928;28;20466;-83
2022/01/06 00:56:38;;;;;;;717.83;652.43;;;3.50;99.90;;;;;;5100085;28;20456;-83
2022/01/06 00:59:05;;;;;;;712.07;646.07;;;3.50;99.90;;;;;;5080395;28;20454;-84
2022/01/06 01:01:32;;;;;;;698.80;635.50;;;3.60;99.90;;;;;;5080965;28;20458;-84
2022/01/06 01:03:59;;;;;;;707.53;645.70;;;3.70;99.90;;;;;;5097668;28;20820;-83
2022/01/06 01:06:27;;;;;;;712.20;650.50;;;3.70;99.90;;;;;;5101242;28;20453;-84
2022/01/06 01:08:54;;;;;;;710.43;648.17;;;3.70;99.90;;;;;;5083020;28;20473;-83
2022/01/06 01:11:20;;;;;;;704.57;643.70;;;3.60;99.90;;;;;;5079084;28;20454;-83
2022/01/06 01:13:55;;;;;;;710.17;649.27;;;3.60;99.90;;;;;;5091011;28;20949;-83
2022/01/06 01:16:27;;;;;;;696.77;637.00;;;3.60;99.90;;;;;;5068494;28;20443;-83
2022/01/06 01:18:56;;;;;;;686.13;625.63;;;3.60;99.90;;;;;;5079177;28;20446;-84
2022/01/06 01:21:26;;;;;;;676.07;619.97;;;3.70;99.90;;;;;;5079919;28;20877;-84
2022/01/06 01:23:55;;;;;;;688.07;632.00;;;3.70;99.90;;;;;;5078274;28;20524;-84
2022/01/06 01:26:22;;;;;;;697.80;641.90;;;3.70;99.90;;;;;;5077567;28;20489;-84
2022/01/06 01:28:50;;;;;;;708.70;652.37;;;3.60;99.90;;;;;;5063916;28;20447;-84
2022/01/06 01:31:27;;;;;;;711.93;653.67;;;3.50;99.90;;;;;;5057805;28;20538;-84
2022/01/06 01:33:57;;;;;;;724.00;665.23;;;3.40;99.90;;;;;;5071638;28;20455;-84
2022/01/06 01:36:24;;;;;;;706.83;649.63;;;3.40;99.90;;;;;;5079159;28;20457;-84
2022/01/06 01:38:51;;;;;;;705.47;646.50;;;3.40;99.90;;;;;;5077323;28;20958;-84
2022/01/06 01:41:20;;;;;;;706.30;648.37;;;3.30;99.90;;;;;;5079240;28;20476;-84
2022/01/06 01:43:47;;;;;;;702.67;642.90;;;3.30;99.90;;;;;;5059923;28;20451;-83
2022/01/06 01:46:17;;;;;;;706.93;646.67;;;3.30;99.90;;;;;;5058640;28;20479;-84
2022/01/06 01:48:49;;;;;;;710.17;649.47;;;3.30;99.90;;;;;;5075130;28;20478;-83
2022/01/06 01:51:16;;;;;;;717.63;657.57;;;3.20;99.90;;;;;;5077729;28;20446;-82
2022/01/06 01:53:42;;;;;;;710.00;651.57;;;3.30;99.90;;;;;;5078571;28;20450;-84
2022/01/06 01:56:11;;;;;;;698.43;641.17;;;3.30;99.90;;;;;;5073586;28;21004;-84
2022/01/06 01:58:40;;;;;;;695.00;637.30;;;3.40;99.90;;;;;;5057765;28;20824;-84
2022/01/06 02:01:07;;;;;;;701.37;645.00;;;3.30;99.90;;;;;;5061081;28;20536;-83
2022/01/06 02:03:34;;;;;;;707.03;648.10;;;3.30;99.90;;;;;;5078668;28;20451;-84
2022/01/06 02:06:01;;;;;;;708.03;649.77;;;3.30;99.90;;;;;;5074979;28;20475;-83
2022/01/06 02:08:27;;;;;;;706.87;650.03;;;3.20;99.90;;;;;;5056600;28;21137;-84
2022/01/06 02:10:54;;;;;;;709.67;652.07;;;3.20;99.90;;;;;;5058825;28;20463;-83
2022/01/06 02:13:23;;;;;;;707.83;650.70;;;3.10;99.90;;;;;;5078297;28;20446;-84
2022/01/06 02:15:52;;;;;;;712.50;655.67;;;3.10;99.90;;;;;;5076507;28;20569;-84
2022/01/06 02:18:18;;;;;;;715.63;658.97;;;3.20;99.90;;;;;;5057373;28;20948;-84
2022/01/06 02:20:47;;;;;;;725.00;667.50;;;3.20;99.90;;;;;;5057109;28;20455;-84
2022/01/06 02:23:13;;;;;;;726.57;669.00;;;3.10;99.90;;;;;;5076013;28;20454;-83
2022/01/06 02:25:40;;;;;;;727.33;668.47;;;3.10;99.90;;;;;;5075954;28;20482;-84
2022/01/06 02:28:07;;;;;;;733.57;674.27;;;3.10;99.90;;;;;;5075985;28;20462;-84
2022/01/06 02:30:35;;;;;;;745.27;684.97;;;3.10;99.90;;;;;;5077800;28;20829;-84
2022/01/06 02:33:04;;;;;;;746.57;685.70;;;3.10;99.90;;;;;;5058091;28;20455;-83
2022/01/06 02:35:32;;;;;;;732.67;670.83;;;3.10;99.90;;;;;;5059005;28;20498;-84
2022/01/06 02:38:00;;;;;;;737.07;675.87;;;3.10;99.90;;;;;;5057698;28;20462;-83
2022/01/06 02:40:27;;;;;;;743.47;682.53;;;3.10;99.90;;;;;;5069343;28;20445;-84
2022/01/06 02:42:58;;;;;;;735.40;676.37;;;3.10;99.90;;;;;;5096874;28;20831;-84
2022/01/06 02:45:27;;;;;;;745.87;684.57;;;3.10;99.90;;;;;;5091955;28;20545;-84
2022/01/06 02:47:55;;;;;;;743.83;681.97;;;3.20;99.90;;;;;;5077015;28;20521;-83
2022/01/06 02:50:25;;;;;;;741.77;681.10;;;3.20;99.90;;;;;;5081224;28;20530;-83
2022/01/06 02:52:52;;;;;;;734.63;673.43;;;3.20;99.90;;;;;;5096992;28;20457;-84
2022/01/06 02:55:21;;;;;;;734.07;672.97;;;3.20;99.90;;;;;;5093056;28;20462;-83
2022/01/06 02:57:47;;;;;;;749.37;686.90;;;3.30;99.90;;;;;;5077744;28;20455;-83
2022/01/06 03:00:16;;;;;;;756.40;693.93;;;3.40;99.90;;;;;;5078821;28;20522;-85
2022/01/06 03:02:45;;;;;;;757.47;696.07;;;3.40;99.90;;;;;;5097630;28;20450;-83
2022/01/06 03:05:13;;;;;;;764.77;703.67;;;3.40;99.90;;;;;;5094965;28;21159;-83
2022/01/06 03:07:41;;;;;;;775.87;715.37;;;3.40;99.90;;;;;;5077431;28;20455;-84
2022/01/06 03:10:12;;;;;;;777.30;715.60;;;3.50;99.90;;;;;;5076591;28;20451;-84
2022/01/06 03:12:40;;;;;;;784.37;723.83;;;3.50;99.90;;;;;;5097220;28;20463;-84
2022/01/06 03:15:09;;;;;;;790.97;730.30;;;3.50;99.90;;;;;;5094640;28;20477;-84
2022/01/06 03:17:36;;;;;;;781.40;719.63;;;3.30;99.90;;;;;;5077450;28;20458;-83
2022/01/06 03:20:03;;;;;;;791.70;729.50;;;3.30;99.90;;;;;;5076855;28;20461;-83
2022/01/06 03:22:29;;;;;;;794.67;733.07;;;3.40;99.90;;;;;;5077352;28;20454;-85
2022/01/06 03:24:56;;;;;;;780.33;719.63;;;3.30;99.90;;;;;;5076217;28;20490;-83
2022/01/06 03:27:23;;;;;;;775.37;715.80;;;3.20;99.90;;;;;;5058653;28;20455;-83
2022/01/06 03:29:51;;;;;;;773.80;713.57;;;3.20;99.90;;;;;;5084850;28;20449;-85
2022/01/06 03:32:18;;;;;;;772.73;714.03;;;3.20;99.90;;;;;;5100909;28;20456;-84
2022/01/06 03:34:46;;;;;;;774.00;715.20;;;3.20;99.90;;;;;;5088269;28;20478;-83
2022/01/06 03:37:14;;;;;;;776.67;716.57;;;3.10;99.90;;;;;;5079831;28;20458;-83
2022/01/06 03:39:42;;;;;;;783.70;724.10;;;3.00;99.90;;;;;;5089468;28;20839;-83
2022/01/06 03:42:09;;;;;;;783.23;722.43;;;3.00;99.90;;;;;;5100227;28;20791;-84
2022/01/06 03:44:36;;;;;;;772.77;712.03;;;2.90;99.90;;;;;;5079691;28;20853;-83
2022/01/06 03:47:05;;;;;;;776.63;713.23;;;2.90;99.90;;;;;;5081215;28;20481;-83
2022/01/06 03:49:32;;;;;;;776.33;713.43;;;2.90;99.90;;;;;;5099716;28;20445;-83
2022/01/06 03:51:58;;;;;;;777.73;715.13;;;2.90;99.90;;;;;;5100815;28;20455;-83
2022/01/06 03:54:25;;;;;;;777.97;714.43;;;3.00;99.90;;;;;;5082964;28;20469;-83
2022/01/06 03:56:52;;;;;;;772.00;709.20;;;3.00;99.90;;;;;;5080152;28;20455;-83
2022/01/06 03:59:20;;;;;;;777.97;717.37;;;2.90;99.90;;;;;;5079488;28;20445;-83
2022/01/06 04:01:47;;;;;;;773.97;714.07;;;3.00;99.90;;;;;;5078537;28;20525;-83
2022/01/06 04:04:15;;;;;;;777.47;718.50;;;2.90;99.90;;;;;;5095408;28;20469;-83
2022/01/06 04:06:43;;;;;;;787.73;727.10;;;2.90;99.90;;;;;;5086611;28;20465;-83
2022/01/06 04:09:10;;;;;;;778.83;718.07;;;2.80;99.90;;;;;;5081669;28;20816;-83
2022/01/06 04:11:37;;;;;;;774.60;714.37;;;2.70;99.90;;;;;;5081867;28;20454;-83
2022/01/06 04:14:03;;;;;;;774.30;713.63;;;2.80;99.90;;;;;;5082520;28;20449;-83
2022/01/06 04:16:34;;;;;;;779.57;719.10;;;2.70;99.90;;;;;;5080536;28;20462;-83
2022/01/06 04:19:01;;;;;;;772.73;711.50;;;2.70;99.90;;;;;;5090783;28;20544;-84
2022/01/06 04:21:29;;;;;;;773.47;712.20;;;2.70;99.90;;;;;;5101226;28;20445;-83
2022/01/06 04:23:56;;;;;;;767.33;705.83;;;2.60;99.90;;;;;;5091287;28;20439;-83
2022/01/06 04:26:22;;;;;;;770.40;709.63;;;2.60;99.90;;;;;;5081292;28;20478;-83
2022/01/06 04:28:49;;;;;;;778.63;715.80;;;2.60;99.90;;;;;;5088772;28;20446;-83
2022/01/06 04:31:16;;;;;;;776.30;714.13;;;2.70;99.90;;;;;;5099889;28;20540;-83
2022/01/06 04:33:43;;;;;;;763.97;704.00;;;2.70;99.90;;;;;;5093468;28;20447;-83
2022/01/06 04:36:10;;;;;;;758.10;699.10;;;2.70;99.90;;;;;;5079866;28;20474;-83
2022/01/06 04:38:38;;;;;;;758.93;700.03;;;2.70;99.90;;;;;;5098430;28;20461;-84
2022/01/06 04:41:05;;;;;;;764.47;704.47;;;2.80;99.90;;;;;;5099125;28;20453;-83
2022/01/06 04:43:32;;;;;;;760.63;700.40;;;2.60;99.90;;;;;;5078939;28;20533;-83
2022/01/06 04:46:00;;;;;;;766.93;707.60;;;2.70;99.90;;;;;;5078027;28;20478;-83
2022/01/06 04:48:27;;;;;;;765.13;705.90;;;2.60;99.90;;;;;;5097402;28;20473;-83
2022/01/06 04:50:54;;;;;;;760.80;702.67;;;2.70;99.90;;;;;;5092810;28;20461;-83
2022/01/06 04:53:20;;;;;;;771.37;711.90;;;2.80;99.90;;;;;;5080271;28;20477;-84
2022/01/06 04:55:51;;;;;;;769.60;710.43;;;2.70;99.90;;;;;;5087452;28;20473;-84
2022/01/06 04:58:17;;;;;;;768.70;708.87;;;2.70;99.90;;;;;;5084527;28;20563;-83
2022/01/06 05:00:44;;;;;;;754.80;695.67;;;2.60;99.90;;;;;;5095629;28;20821;-85
2022/01/06 05:03:11;;;;;;;755.33;695.70;;;2.60;99.90;;;;;;5079623;28;20454;-84
2022/01/06 05:05:38;;;;;;;751.33;691.73;;;2.60;99.90;;;;;;5080691;28;20470;-84
2022/01/06 05:08:05;;;;;;;752.53;693.13;;;2.60;99.90;;;;;;5092454;28;20833;-83
2022/01/06 05:10:32;;;;;;;759.07;698.60;;;2.60;99.90;;;;;;5097049;28;20456;-84
2022/01/06 05:13:00;;;;;;;739.60;678.40;;;2.60;99.90;;;;;;5100187;28;20449;-83
2022/01/06 05:15:27;;;;;;;744.13;682.83;;;2.60;99.90;;;;;;5097310;28;20465;-83
2022/01/06 05:17:54;;;;;;;752.93;690.43;;;2.60;99.90;;;;;;5099569;28;20456;-83
2022/01/06 05:20:25;;;;;;;756.40;693.70;;;2.60;99.90;;;;;;5084087;28;20450;-83
2022/01/06 05:22:55;;;;;;;752.37;687.77;;;2.60;99.90;;;;;;5080551;28;20451;-84
2022/01/06 05:25:25;;;;;;;750.00;685.80;;;2.60;99.90;;;;;;5095336;28;20498;-85
2022/01/06 05:27:52;;;;;;;753.37;689.40;;;2.50;99.90;;;;;;5096627;28;20446;-85
2022/01/06 05:30:27;;;;;;;739.30;675.53;;;2.50;99.90;;;;;;5079744;28;21027;-83
2022/01/06 05:32:55;;;;;;;742.37;677.60;;;2.60;99.90;;;;;;5085363;28;20536;-83
2022/01/06 05:35:25;;;;;;;740.07;673.23;;;2.50;99.90;;;;;;5099566;28;21004;-83
2022/01/06 05:37:53;;;;;;;749.07;683.90;;;2.50;99.90;;;;;;5093662;28;20463;-83
2022/01/06 05:40:23;;;;;;;750.37;684.57;;;2.60;99.90;;;;;;5079902;28;20454;-83
2022/01/06 05:42:52;;;;;;;762.10;697.17;;;2.60;99.90;;;;;;5098339;28;20532;-84
2022/01/06 05:45:22;;;;;;;759.67;694.47;;;2.60;99.90;;;;;;5087176;28;20478;-83
2022/01/06 05:47:56;;;;;;;760.10;694.80;;;2.60;99.90;;;;;;5085830;28;20447;-84
2022/01/06 05:50:23;;;;;;;752.90;687.50;;;2.70;99.90;;;;;;5077062;28;21103;-83
2022/01/06 05:52:56;;;;;;;763.73;697.57;;;2.60;99.90;;;;;;5079952;28;20487;-83
2022/01/06 05:55:23;;;;;;;765.27;699.60;;;2.50;99.90;;;;;;5079550;28;20474;-84
2022/01/06 05:57:50;;;;;;;761.43;695.83;;;2.60;99.90;;;;;;5078734;28;20489;-84
2022/01/06 06:00:19;;;;;;;765.97;699.67;;;2.50;99.90;;;;;;5079379;28;20792;-84
2022/01/06 06:02:54;;;;;;;769.30;703.20;;;2.50;99.90;;;;;;5079310;28;20454;-83
2022/01/06 06:05:22;;;;;;;767.10;701.90;;;2.50;99.90;;;;;;5079357;28;20527;-84
2022/01/06 06:08:21;;;;;;;774.10;706.67;;;2.40;99.90;;;;;;5079808;28;20502;-83
2022/01/06 06:11:05;;;;;;;753.93;686.60;;;2.50;99.90;;;;;;5082100;28;20456;-85
2022/01/06 06:13:32;;;;;;;758.33;691.83;;;2.60;99.90;;;;;;5092820;28;20450;-85
2022/01/06 06:16:07;;;;;;;756.23;690.60;;;2.60;99.90;;;;;;5078388;28;20537;-84
2022/01/06 06:18:34;;;;;;;748.23;683.37;;;2.70;99.90;;;;;;5081106;28;20488;-85
2022/01/06 06:21:02;;;;;;;750.97;684.87;;;2.60;99.90;;;;;;5077217;28;20850;-86
2022/01/06 06:23:32;;;;;;;752.80;687.30;;;2.70;99.90;;;;;;5093917;28;20445;-84
2022/01/06 06:26:01;;;;;;;761.03;694.63;;;2.70;99.90;;;;;;5097926;28;20462;-85
2022/01/06 06:28:31;;;;;;;750.53;685.03;;;2.70;99.90;;;;;;5094979;28;20446;-84
2022/01/06 06:31:00;;;;;;;773.03;704.70;;;2.60;99.90;;;;;;5101096;28;20817;-84
2022/01/06 06:33:27;;;;;;;760.70;692.97;;;2.60;99.90;;;;;;5083217;28;20454;-84
2022/01/06 06:35:54;;;;;;;760.93;691.50;;;2.50;99.90;;;;;;5095305;28;20469;-84
2022/01/06 06:38:22;;;;;;;775.50;706.53;;;2.60;99.90;;;;;;5085963;28;20496;-84
2022/01/06 06:40:49;;;;;;;758.43;690.53;;;2.50;99.90;;;;;;5096188;28;20451;-84
2022/01/06 06:43:16;;;;;;;759.60;691.80;;;2.50;99.90;;;;;;5091398;28;20481;-84
2022/01/06 06:45:47;;;;;;;758.53;689.33;;;2.50;99.90;;;;;;5079668;28;21017;-84
2022/01/06 06:51:22;;;;;;;750.00;681.10;;;2.50;99.90;;;;;;5083796;28;20482;-83
2022/01/06 06:53:55;;;;;;;758.80;689.10;;;2.50;99.90;;;;;;5087154;28;20480;-84
2022/01/06 06:56:26;;;;;;;757.17;688.30;;;2.40;99.90;;;;;;5079835;28;20480;-84
2022/01/06 06:59:00;;;;;;;758.77;686.87;;;2.50;99.90;;;;;;5094766;28;20457;-84
2022/01/06 07:01:35;;;;;;;748.73;678.70;;;2.50;99.90;;;;;;5087093;28;20937;-84
2022/01/06 07:04:04;;;;;;;760.20;690.93;;;2.60;99.90;;;;;;5087810;28;20895;-84
2022/01/06 07:06:48;;;;;;;753.07;683.50;;;2.60;99.90;;;;;;5079166;28;21023;-84
2022/01/06 07:09:16;;;;;;;754.63;685.43;;;2.60;99.90;;;;;;5092216;28;20866;-83
2022/01/06 07:12:05;;;;;;;762.67;693.13;;;2.50;99.90;;;;;;5095223;28;20537;-84
2022/01/06 07:15:14;;;;;;;;;;;;;;;;;;;;;
2022/01/06 07:20:54;;;;;;;769.90;702.90;;;2.80;99.90;;;;;;5069401;28;20458;-84
2022/01/06 07:23:31;;;;;;;762.47;695.13;;;2.80;99.90;;;;;;5078313;28;20537;-85
2022/01/06 07:26:20;;;;;;;759.20;694.37;;;2.80;99.90;;;;;;5091218;28;20469;-85
2022/01/06 07:31:47;;;;;;;750.47;687.20;;;2.90;99.90;;;;;;5081866;28;20516;-85
2022/01/06 07:34:14;;;;;;;748.93;686.43;;;3.00;99.90;;;;;;5096912;28;20488;-84
2022/01/06 07:36:47;;;;;;;758.93;696.03;;;3.00;99.90;;;;;;5080701;28;20446;-84
2022/01/06 07:39:26;;;;;;;749.83;687.97;;;2.90;99.90;;;;;;5078087;28;21041;-84
2022/01/06 07:41:57;;;;;;;739.93;677.27;;;3.00;99.90;;;;;;5081163;28;20469;-83
2022/01/06 07:44:26;;;;;;;745.60;683.00;;;3.10;99.90;;;;;;5095681;28;20503;-84
2022/01/06 07:47:14;;;;;;;;;;;;;;;;;;;;;
2022/01/06 07:49:52;;;;;;;744.63;685.93;;;3.10;99.90;;;;;;5092284;28;20489;-83
2022/01/06 07:52:36;;;;;;;738.80;680.47;;;3.10;99.90;;;;;;5099174;28;20503;-84
2022/01/06 07:55:06;;;;;;;744.27;685.27;;;2.90;99.90;;;;;;5097626;28;20469;-85
2022/01/06 07:57:40;;;;;;;747.77;690.77;;;2.90;99.90;;;;;;5098090;28;20474;-84
2022/01/06 08:00:20;;;;;;;756.90;697.10;;;2.90;99.90;;;;;;5098079;28;20492;-84
2022/01/06 08:03:00;;;;;;;750.23;692.13;;;2.70;99.90;;;;;;5098974;28;20457;-83
2022/01/06 08:05:30;;;;;;;741.27;680.20;;;2.80;99.90;;;;;;5097926;28;20532;-84
2022/01/06 08:08:15;;;;;;;742.10;681.70;;;2.80;99.90;;;;;;5097484;28;20472;-84
2022/01/06 08:10:46;;;;;;;730.97;668.80;;;2.80;99.90;;;;;;5099203;28;20941;-84
2022/01/06 08:13:20;;;;;;;733.53;670.17;;;2.90;99.90;;;;;;5099159;28;20461;-84
2022/01/06 08:16:12;;;;;;;732.40;669.40;;;3.10;99.90;;;;;;5102196;28;20470;-84
2022/01/06 08:18:41;;;;;;;742.67;682.57;;;3.10;99.90;;;;;;5097071;28;20506;-83
2022/01/06 08:21:11;;;;;;;744.17;683.80;;;3.20;99.90;;;;;;5098997;28;20453;-84
2022/01/06 08:23:46;;;;;;;755.07;695.57;;;3.30;99.90;;;;;;5100177;28;20499;-84
2022/01/06 08:26:16;;;;;;;746.40;689.30;;;3.40;99.90;;;;;;5100718;28;20453;-84
2022/01/06 08:28:46;;;;;;;737.30;679.80;;;3.40;99.90;;;;;;5101475;28;20459;-83
2022/01/06 08:31:22;;;;;;;734.80;677.83;;;3.50;99.90;;;;;;5101067;28;20441;-84
2022/01/06 08:33:49;;;;;;;734.87;679.43;;;3.40;99.90;;;;;;5101149;28;20459;-84
2022/01/06 08:36:17;;;;;;;732.53;677.80;;;3.40;99.90;;;;;;5100461;28;20477;-83
2022/01/06 08:38:46;;;;;;;727.90;671.93;;;3.40;99.90;;;;;;5101042;28;20454;-84
2022/01/06 08:41:16;;;;;;;726.97;671.87;;;3.50;99.90;;;;;;5100578;28;20456;-84
2022/01/06 08:43:55;;;;;;;733.57;678.67;;;3.50;99.90;;;;;;5101048;28;20449;-85
2022/01/06 08:46:28;;;;;;;730.03;677.10;;;3.70;99.90;;;;;;5101306;28;20503;-83
2022/01/06 08:48:57;;;;;;;729.53;678.67;;;3.80;99.90;;;;;;5101161;28;20510;-84
2022/01/06 08:51:26;;;;;;;729.40;679.00;;;3.80;99.90;;;;;;5100806;28;20446;-84
2022/01/06 08:53:53;;;;;;;728.47;678.60;;;4.00;99.90;;;;;;5098812;28;20450;-83
2022/01/06 08:56:22;;;;;;;726.77;679.53;;;4.00;99.90;;;;;;5100353;28;20537;-84
2022/01/06 08:58:51;;;;;;;719.70;674.07;;;4.10;99.90;;;;;;5100303;28;20784;-84
2022/01/06 09:01:21;;;;;;;692.77;654.23;;;4.10;99.90;;;;;;5098377;28;20952;-84
2022/01/06 09:03:48;;;;;;;701.53;660.73;;;4.10;99.90;;;;;;5099653;28;20449;-83
2022/01/06 09:06:25;;;;;;;676.70;639.87;;;4.10;99.90;;;;;;5100008;28;20477;-84
2022/01/06 09:08:53;;;;;;;662.13;626.87;;;4.10;99.90;;;;;;5099658;28;20442;-83
2022/01/06 09:11:23;;;;;;;633.33;601.53;;;4.00;99.90;;;;;;5100143;28;20457;-83
2022/01/06 09:14:01;;;;;;;602.43;574.03;;;4.10;99.90;;;;;;5099754;28;20487;-81
2022/01/06 09:16:31;;;;;;;610.67;582.10;;;4.00;99.90;;;;;;5100186;28;20822;-82
2022/01/06 09:18:59;;;;;;;635.73;603.67;;;3.90;99.90;;;;;;5100462;28;20475;-83
2022/01/06 09:21:28;;;;;;;663.10;628.10;;;3.80;99.90;;;;;;5099534;28;20460;-83
2022/01/06 09:23:59;;;;;;;669.17;634.17;;;3.80;99.90;;;;;;5097824;28;20458;-83
2022/01/06 09:26:32;;;;;;;679.17;642.77;;;3.80;99.90;;;;;;5098316;28;20526;-84
2022/01/06 09:29:07;;;;;;;696.67;656.60;;;3.80;99.90;;;;;;5098817;28;20446;-84
2022/01/06 09:31:44;;;;;;;709.27;667.77;;;3.80;99.90;;;;;;5098340;28;20898;-83
2022/01/06 09:34:12;;;;;;;715.03;670.00;;;3.90;99.90;;;;;;5097993;28;20534;-83
2022/01/06 09:36:44;;;;;;;721.83;676.60;;;3.90;99.90;;;;;;5098113;28;20454;-84
2022/01/06 09:39:15;;;;;;;711.00;666.70;;;4.10;99.90;;;;;;5098057;28;20544;-83
2022/01/06 09:41:52;;;;;;;715.60;670.50;;;3.90;99.90;;;;;;5098643;28;20949;-83
2022/01/06 09:44:23;;;;;;;712.43;669.10;;;4.00;99.90;;;;;;5098137;28;20465;-83
2022/01/06 09:47:02;;;;;;;706.83;665.73;;;4.00;99.90;;;;;;5097023;28;20965;-83
2022/01/06 09:49:29;;;;;;;694.07;654.40;;;4.00;99.90;;;;;;5097862;28;20452;-83
2022/01/06 09:52:02;;;;;;;693.30;653.33;;;4.00;99.90;;;;;;5098195;28;20511;-83
2022/01/06 09:54:33;;;;;;;702.90;661.70;;;4.00;99.90;;;;;;5097941;28;20469;-83
2022/01/06 09:57:04;;;;;;;679.23;642.17;;;4.00;99.90;;;;;;5097627;28;20793;-83
2022/01/06 09:59:36;;;;;;;661.67;627.70;;;4.00;99.90;;;;;;5098467;28;20446;-82
2022/01/06 10:05:27;;;;;;;678.43;641.53;;;3.80;99.90;;;;;;5098029;28;20840;-83
2022/01/06 10:08:00;;;;;;;680.77;641.67;;;3.90;99.90;;;;;;5096843;28;20473;-84
2022/01/06 10:10:47;;;;;;;693.60;653.30;;;3.90;99.90;;;;;;5093908;28;20464;-85
2022/01/06 10:13:16;;;;;;;722.23;675.87;;;3.90;99.90;;;;;;5074675;28;20546;-83
2022/01/06 10:15:46;;;;;;;717.60;671.27;;;4.10;99.90;;;;;;5074981;28;20494;-85
2022/01/06 10:18:14;;;;;;;719.23;670.83;;;4.30;99.90;;;;;;5074610;28;20447;-84
2022/01/06 10:21:02;;;;;;;675.80;635.40;;;4.50;99.90;;;;;;5075218;28;20455;-84
2022/01/06 10:24:09;;;;;;;623.73;590.10;;;4.70;99.90;;;;;;5075769;28;20455;-85
2022/01/06 10:26:53;;;;;;;474.70;453.17;;;5.10;99.90;;;;;;5075049;28;20512;-84
2022/01/06 10:29:34;;;;;;;417.80;400.00;;;5.30;99.90;;;;;;5075391;28;20516;-85
2022/01/06 10:32:07;;;;;;;341.93;326.63;;;5.20;99.90;;;;;;5075564;28;20458;-84
2022/01/06 10:34:49;;;;;;;342.30;327.93;;;5.30;99.90;;;;;;5074782;28;21010;-85
2022/01/06 10:37:21;;;;;;;377.87;363.00;;;5.30;99.90;;;;;;5075724;28;20477;-84
2022/01/06 10:46:46;;;;;;;631.70;598.75;;;4.90;99.90;;;;;;5038194;28;20875;-83
2022/01/06 10:49:18;;;;;;;564.33;538.50;;;5.00;99.90;;;;;;5075660;28;20216;-84
2022/01/06 10:51:58;;;;;;;518.40;494.97;;;4.90;99.90;;;;;;5077425;28;20997;-84
2022/01/06 10:54:25;;;;;;;530.47;506.90;;;4.90;99.90;;;;;;5076522;28;20478;-83
2022/01/06 10:56:57;;;;;;;531.33;507.17;;;5.00;99.90;;;;;;5075462;28;20537;-83
2022/01/06 10:59:27;;;;;;;575.97;549.17;;;4.90;99.90;;;;;;5075236;28;20438;-84
2022/01/06 11:01:57;;;;;;;564.07;539.00;;;4.80;99.90;;;;;;5075911;28;20451;-83
2022/01/06 11:04:26;;;;;;;575.03;547.83;;;4.80;99.90;;;;;;5079165;28;20893;-83
2022/01/06 11:06:53;;;;;;;591.97;564.00;;;4.80;99.90;;;;;;5078937;28;20454;-82
2022/01/06 11:09:21;;;;;;;609.77;580.27;;;4.90;99.90;;;;;;5075578;28;20501;-83
2022/01/06 11:14:33;;;;;;;620.60;589.00;;;4.80;99.90;;;;;;5073915;28;20454;-82
2022/01/06 11:17:00;;;;;;;613.40;585.30;;;4.80;99.90;;;;;;5075024;28;20455;-83
2022/01/06 11:19:29;;;;;;;632.87;602.07;;;4.90;99.90;;;;;;5073608;28;20707;-83
2022/01/06 11:22:02;;;;;;;619.33;589.20;;;5.10;99.90;;;;;;5072868;28;20949;-83
2022/01/06 11:24:29;;;;;;;597.13;569.57;;;5.20;99.90;;;;;;5075070;28;20475;-82
2022/01/06 11:27:01;;;;;;;565.23;539.03;;;5.30;99.90;;;;;;5075394;28;20541;-83
2022/01/06 11:29:32;;;;;;;596.67;568.17;;;5.30;99.90;;;;;;5075546;28;20443;-84
2022/01/06 11:31:59;;;;;;;552.27;527.53;;;5.30;99.90;;;;;;5075507;28;20976;-82
2022/01/06 11:34:36;;;;;;;537.33;513.97;;;5.30;99.90;;;;;;5075960;28;20463;-82
2022/01/06 11:37:10;;;;;;;555.37;531.20;;;5.40;99.90;;;;;;5075839;28;20454;-82
2022/01/06 11:39:37;;;;;;;630.17;600.47;;;5.50;99.90;;;;;;5076642;28;20488;-82
2022/01/06 11:42:14;;;;;;;584.50;557.20;;;5.50;99.90;;;;;;5075637;28;20447;-83
2022/01/06 11:44:50;;;;;;;543.77;520.17;;;5.40;99.90;;;;;;5076249;28;20880;-83
2022/01/06 11:47:27;;;;;;;589.13;561.73;;;5.50;99.90;;;;;;5076363;28;20498;-83
2022/01/06 11:50:08;;;;;;;569.53;544.13;;;5.50;99.90;;;;;;5079827;28;20454;-83
2022/01/06 11:52:36;;;;;;;597.57;570.00;;;5.60;99.90;;;;;;5080243;28;20976;-82
2022/01/06 11:55:04;;;;;;;564.30;539.60;;;5.50;99.90;;;;;;5080349;28;20474;-83
2022/01/06 11:57:34;;;;;;;588.43;561.87;;;5.50;99.90;;;;;;5080870;28;20474;-82
2022/01/06 12:00:13;;;;;;;596.65;569.53;;;5.60;99.90;;;;;;5081140;28;20449;-83
2022/01/06 12:02:40;;;;;;;494.55;473.15;;;5.50;99.90;;;;;;5082382;28;20492;-83
2022/01/06 12:05:09;;;;;;;429.53;412.10;;;5.50;99.90;;;;;;5082994;28;20218;-83
2022/01/06 12:07:36;;;;;;;380.83;366.03;;;5.50;99.90;;;;;;5081498;28;20477;-83
2022/01/06 12:10:07;;;;;;;361.07;347.23;;;5.40;99.90;;;;;;5082559;28;20780;-83
2022/01/06 12:12:35;;;;;;;431.00;413.47;;;5.40;99.90;;;;;;5083461;28;20454;-83
2022/01/06 12:15:10;;;;;;;400.97;385.37;;;5.50;99.90;;;;;;5084013;28;20470;-83
2022/01/06 12:17:37;;;;;;;430.45;413.00;;;5.50;99.90;;;;;;5083611;28;21057;-81
2022/01/06 12:20:06;;;;;;;411.47;395.20;;;5.60;99.90;;;;;;5081701;28;20664;-83
2022/01/06 12:22:34;;;;;;;313.20;301.30;;;5.80;99.90;;;;;;5081901;28;20694;-84
2022/01/06 12:25:02;;;;;;;335.23;322.43;;;5.90;99.90;;;;;;5082228;28;20470;-84
2022/01/06 12:27:29;;;;;;;301.73;289.67;;;6.00;99.90;;;;;;5084131;28;20625;-83
2022/01/06 12:29:56;;;;;;;193.83;184.77;;;6.10;99.90;;;;;;5080122;28;20454;-83
2022/01/06 12:32:23;;;;;;;182.70;174.33;;;6.00;99.90;;;;;;5076644;28;20544;-84
2022/01/06 12:34:53;;;;;;;156.93;149.83;;;6.00;99.90;;;;;;5078581;28;20474;-83
2022/01/06 12:37:26;;;;;;;156.20;149.03;;;6.00;99.90;;;;;;5075704;28;20481;-84
2022/01/06 12:39:55;;;;;;;120.23;113.83;;;6.00;99.90;;;;;;5074849;28;20458;-83
2022/01/06 12:42:22;;;;;;;143.97;137.33;;;6.10;99.90;;;;;;5075807;28;20826;-84
2022/01/06 12:44:49;;;;;;;132.13;126.00;;;6.10;99.90;;;;;;5075487;28;20470;-84
2022/01/06 12:47:16;;;;;;;176.90;168.33;;;6.00;99.90;;;;;;5074936;28;20466;-84
2022/01/06 12:49:43;;;;;;;131.80;124.10;;;6.10;99.90;;;;;;5081496;28;20478;-83
2022/01/06 12:52:10;;;;;;;99.53;94.67;;;6.10;99.90;;;;;;5082834;28;20451;-83
2022/01/06 12:54:38;;;;;;;161.10;153.93;;;6.10;99.90;;;;;;5083899;28;20539;-83
2022/01/06 12:57:13;;;;;;;145.60;139.23;;;6.50;99.90;;;;;;5081192;28;20442;-83
2022/01/06 12:59:41;;;;;;;71.40;67.27;;;6.40;99.90;;;;;;5081689;28;20890;-83
2022/01/06 13:02:11;;;;;;;48.37;44.90;;;6.60;99.90;;;;;;5081857;28;20461;-84
2022/01/06 13:04:41;;;;;;;43.23;39.17;;;6.40;99.90;;;;;;5081745;28;20476;-82